Terminal Aerodrome Forecast
Issued by NWS Kansas City/Pleasant Hill, MO

Home | Current Version | Previous Version | Text Only | Print | Product List | Glossary On
Versions: 1 2 3 4 5 6 7 8 9 10 11 12 13
000
FTUS43 KEAX 221700
TAFMCI
TAF
KMCI 221735Z 2218/2318 23012KT P6SM SCT250
     FM230200 02010KT P6SM VCTS BKN050CB
     FM230600 04009KT P6SM SCT035 BKN045
     FM231400 04011KT P6SM FEW120=

USA.gov is the U.S. government's official web portal to all federal, state and local government web resources and services.